Terminal Aerodrome Forecast
Issued by NWS

Home | Current Version | Previous Version | Text Only | Print | Product List | Glossary On
Versions: 1 2 3 4 5 6 7 8 9 10 11 12 13 14 15 16
000
FTUS45 KABQ 252342 RRA
TAFLVS
TAF
KLVS 252342Z 2600/2624 23010KT P6SM VCSH SCT070 BKN100
     FM260700 31009KT P6SM FEW080
     FM261100 35006KT P6SM SKC
     FM261600 17011KT P6SM FEW060
     FM262100 20012G20KT P6SM SCT060=

USA.gov is the U.S. government's official web portal to all federal, state and local government web resources and services.